sensor_id;sensor_type;location;lat;lon;timestamp;temperature;humidity
52509;DHT22;38420;53.150;6.370;2022-10-16T00:00:35;12.80;99.90
52509;DHT22;38420;53.150;6.370;2022-10-16T00:03:02;12.60;99.90
52509;DHT22;38420;53.150;6.370;2022-10-16T00:05:28;12.70;99.90
52509;DHT22;38420;53.150;6.370;2022-10-16T00:07:54;12.80;99.90
52509;DHT22;38420;53.150;6.370;2022-10-16T00:10:20;12.50;99.90
52509;DHT22;38420;53.150;6.370;2022-10-16T00:12:45;12.50;99.90
52509;DHT22;38420;53.150;6.370;2022-10-16T00:15:11;12.80;99.90
52509;DHT22;38420;53.150;6.370;2022-10-16T00:17:37;12.80;99.90
52509;DHT22;38420;53.150;6.370;2022-10-16T00:20:02;12.80;99.90
52509;DHT22;38420;53.150;6.370;2022-10-16T00:22:28;12.80;99.90
52509;DHT22;38420;53.150;6.370;2022-10-16T00:24:54;12.60;99.90
52509;DHT22;38420;53.150;6.370;2022-10-16T00:27:19;12.60;99.90
52509;DHT22;38420;53.150;6.370;2022-10-16T00:29:52;12.80;99.90
52509;DHT22;38420;53.150;6.370;2022-10-16T00:32:18;12.80;99.90
52509;DHT22;38420;53.150;6.370;2022-10-16T00:34:44;12.60;99.90
52509;DHT22;38420;53.150;6.370;2022-10-16T00:37:10;13.20;99.90
52509;DHT22;38420;53.150;6.370;2022-10-16T00:39:36;12.60;99.90
52509;DHT22;38420;53.150;6.370;2022-10-16T00:42:02;12.50;99.90
52509;DHT22;38420;53.150;6.370;2022-10-16T00:44:48;12.70;99.90
52509;DHT22;38420;53.150;6.370;2022-10-16T00:47:39;12.40;99.90
52509;DHT22;38420;53.150;6.370;2022-10-16T00:50:30;12.70;99.90
52509;DHT22;38420;53.150;6.370;2022-10-16T00:52:57;12.40;99.90
52509;DHT22;38420;53.150;6.370;2022-10-16T00:55:24;12.80;99.90
52509;DHT22;38420;53.150;6.370;2022-10-16T00:57:51;12.80;99.90
52509;DHT22;38420;53.150;6.370;2022-10-16T01:00:22;12.50;99.90
52509;DHT22;38420;53.150;6.370;2022-10-16T01:02:53;12.70;99.90
52509;DHT22;38420;53.150;6.370;2022-10-16T01:05:21;12.50;99.90
52509;DHT22;38420;53.150;6.370;2022-10-16T01:07:58;12.80;99.90
52509;DHT22;38420;53.150;6.370;2022-10-16T01:10:38;12.80;99.90
52509;DHT22;38420;53.150;6.370;2022-10-16T01:13:10;12.50;99.90
52509;DHT22;38420;53.150;6.370;2022-10-16T01:15:47;12.60;99.90
52509;DHT22;38420;53.150;6.370;2022-10-16T01:21:22;12.70;99.90
52509;DHT22;38420;53.150;6.370;2022-10-16T01:29:31;12.70;99.90
52509;DHT22;38420;53.150;6.370;2022-10-16T01:32:05;12.70;99.90
52509;DHT22;38420;53.150;6.370;2022-10-16T01:34:51;13.00;99.90
52509;DHT22;38420;53.150;6.370;2022-10-16T01:37:29;12.90;99.90
52509;DHT22;38420;53.150;6.370;2022-10-16T01:40:00;13.50;99.90
52509;DHT22;38420;53.150;6.370;2022-10-16T01:42:35;13.00;99.90
52509;DHT22;38420;53.150;6.370;2022-10-16T01:45:02;12.90;99.90
52509;DHT22;38420;53.150;6.370;2022-10-16T01:47:33;12.90;99.90
52509;DHT22;38420;53.150;6.370;2022-10-16T01:50:01;13.10;99.90
52509;DHT22;38420;53.150;6.370;2022-10-16T01:52:29;13.00;99.90
52509;DHT22;38420;53.150;6.370;2022-10-16T01:54:55;12.90;99.90
52509;DHT22;38420;53.150;6.370;2022-10-16T01:57:24;13.00;99.90
52509;DHT22;38420;53.150;6.370;2022-10-16T01:59:54;13.20;99.90
52509;DHT22;38420;53.150;6.370;2022-10-16T02:02:22;13.20;99.90
52509;DHT22;38420;53.150;6.370;2022-10-16T02:05:02;13.00;99.90
52509;DHT22;38420;53.150;6.370;2022-10-16T02:07:30;13.00;99.90
52509;DHT22;38420;53.150;6.370;2022-10-16T02:09:56;13.00;99.90
52509;DHT22;38420;53.150;6.370;2022-10-16T02:12:31;13.20;99.90
52509;DHT22;38420;53.150;6.370;2022-10-16T02:14:57;13.00;99.90
52509;DHT22;38420;53.150;6.370;2022-10-16T02:17:23;13.30;99.90
52509;DHT22;38420;53.150;6.370;2022-10-16T02:19:51;13.10;99.90
52509;DHT22;38420;53.150;6.370;2022-10-16T02:22:39;13.00;99.90
52509;DHT22;38420;53.150;6.370;2022-10-16T02:25:19;13.10;99.90
52509;DHT22;38420;53.150;6.370;2022-10-16T02:30:43;13.00;99.90
52509;DHT22;38420;53.150;6.370;2022-10-16T02:33:11;13.30;99.90
52509;DHT22;38420;53.150;6.370;2022-10-16T02:35:39;13.10;99.90
52509;DHT22;38420;53.150;6.370;2022-10-16T02:38:08;13.30;99.90
52509;DHT22;38420;53.150;6.370;2022-10-16T02:40:34;13.20;99.90
52509;DHT22;38420;53.150;6.370;2022-10-16T02:43:04;13.20;99.90
52509;DHT22;38420;53.150;6.370;2022-10-16T02:45:30;13.10;99.90
52509;DHT22;38420;53.150;6.370;2022-10-16T02:47:56;13.30;99.90
52509;DHT22;38420;53.150;6.370;2022-10-16T02:50:21;13.30;99.90
52509;DHT22;38420;53.150;6.370;2022-10-16T02:52:48;13.40;99.90
52509;DHT22;38420;53.150;6.370;2022-10-16T02:55:13;13.30;99.90
52509;DHT22;38420;53.150;6.370;2022-10-16T02:57:39;13.20;99.90
52509;DHT22;38420;53.150;6.370;2022-10-16T03:00:09;13.10;99.90
52509;DHT22;38420;53.150;6.370;2022-10-16T03:02:36;13.20;99.90
52509;DHT22;38420;53.150;6.370;2022-10-16T03:05:02;13.30;99.90
52509;DHT22;38420;53.150;6.370;2022-10-16T03:07:28;13.20;99.90
52509;DHT22;38420;53.150;6.370;2022-10-16T03:09:53;13.20;99.90
52509;DHT22;38420;53.150;6.370;2022-10-16T03:12:21;13.20;99.90
52509;DHT22;38420;53.150;6.370;2022-10-16T03:14:47;13.30;99.90
52509;DHT22;38420;53.150;6.370;2022-10-16T03:17:12;13.20;99.90
52509;DHT22;38420;53.150;6.370;2022-10-16T03:19:39;13.40;99.90
52509;DHT22;38420;53.150;6.370;2022-10-16T03:22:04;13.10;99.90
52509;DHT22;38420;53.150;6.370;2022-10-16T03:24:30;13.10;99.90
52509;DHT22;38420;53.150;6.370;2022-10-16T03:26:55;13.30;99.90
52509;DHT22;38420;53.150;6.370;2022-10-16T03:29:21;13.10;99.90
52509;DHT22;38420;53.150;6.370;2022-10-16T03:31:47;13.10;99.90
52509;DHT22;38420;53.150;6.370;2022-10-16T03:34:14;13.10;99.90
52509;DHT22;38420;53.150;6.370;2022-10-16T03:36:40;13.10;99.90
52509;DHT22;38420;53.150;6.370;2022-10-16T03:39:05;13.00;99.90
52509;DHT22;38420;53.150;6.370;2022-10-16T03:41:31;13.10;99.90
52509;DHT22;38420;53.150;6.370;2022-10-16T03:43:57;12.90;99.90
52509;DHT22;38420;53.150;6.370;2022-10-16T03:46:22;13.10;99.90
52509;DHT22;38420;53.150;6.370;2022-10-16T03:48:48;13.10;99.90
52509;DHT22;38420;53.150;6.370;2022-10-16T03:51:13;12.90;99.90
52509;DHT22;38420;53.150;6.370;2022-10-16T03:53:39;13.00;99.90
52509;DHT22;38420;53.150;6.370;2022-10-16T03:56:05;13.00;99.90
52509;DHT22;38420;53.150;6.370;2022-10-16T03:58:30;13.10;99.90
52509;DHT22;38420;53.150;6.370;2022-10-16T04:00:56;13.00;99.90
52509;DHT22;38420;53.150;6.370;2022-10-16T04:03:21;12.90;99.90
52509;DHT22;38420;53.150;6.370;2022-10-16T04:05:48;12.80;99.90
52509;DHT22;38420;53.150;6.370;2022-10-16T04:08:14;12.90;99.90
52509;DHT22;38420;53.150;6.370;2022-10-16T04:10:39;13.10;99.90
52509;DHT22;38420;53.150;6.370;2022-10-16T04:13:07;12.80;99.90
52509;DHT22;38420;53.150;6.370;2022-10-16T04:15:32;12.80;99.90
52509;DHT22;38420;53.150;6.370;2022-10-16T04:17:58;12.90;99.90
52509;DHT22;38420;53.150;6.370;2022-10-16T04:20:24;13.00;99.90
52509;DHT22;38420;53.150;6.370;2022-10-16T04:22:49;12.80;99.90
52509;DHT22;38420;53.150;6.370;2022-10-16T04:25:15;12.80;99.90
52509;DHT22;38420;53.150;6.370;2022-10-16T04:27:40;13.00;99.90
52509;DHT22;38420;53.150;6.370;2022-10-16T04:30:06;12.70;99.90
52509;DHT22;38420;53.150;6.370;2022-10-16T04:32:32;12.90;99.90
52509;DHT22;38420;53.150;6.370;2022-10-16T04:34:58;12.90;99.90
52509;DHT22;38420;53.150;6.370;2022-10-16T04:37:26;12.70;99.90
52509;DHT22;38420;53.150;6.370;2022-10-16T04:39:53;12.90;99.90
52509;DHT22;38420;53.150;6.370;2022-10-16T04:42:19;12.70;99.90
52509;DHT22;38420;53.150;6.370;2022-10-16T04:44:45;12.90;99.90
52509;DHT22;38420;53.150;6.370;2022-10-16T04:47:11;12.90;99.90
52509;DHT22;38420;53.150;6.370;2022-10-16T04:49:36;12.90;99.90
52509;DHT22;38420;53.150;6.370;2022-10-16T04:52:02;12.80;99.90
52509;DHT22;38420;53.150;6.370;2022-10-16T04:54:28;13.00;99.90
52509;DHT22;38420;53.150;6.370;2022-10-16T04:56:53;13.00;99.90
52509;DHT22;38420;53.150;6.370;2022-10-16T04:59:20;12.90;99.90
52509;DHT22;38420;53.150;6.370;2022-10-16T05:01:46;13.30;99.90
52509;DHT22;38420;53.150;6.370;2022-10-16T05:04:11;12.80;99.90
52509;DHT22;38420;53.150;6.370;2022-10-16T05:06:37;12.70;99.90
52509;DHT22;38420;53.150;6.370;2022-10-16T05:09:04;12.70;99.90
52509;DHT22;38420;53.150;6.370;2022-10-16T05:11:30;12.80;99.90
52509;DHT22;38420;53.150;6.370;2022-10-16T05:13:56;12.90;99.90
52509;DHT22;38420;53.150;6.370;2022-10-16T05:16:22;12.70;99.90
52509;DHT22;38420;53.150;6.370;2022-10-16T05:18:47;13.00;99.90
52509;DHT22;38420;53.150;6.370;2022-10-16T05:21:13;12.70;99.90
52509;DHT22;38420;53.150;6.370;2022-10-16T05:23:39;12.60;99.90
52509;DHT22;38420;53.150;6.370;2022-10-16T05:26:04;13.00;99.90
52509;DHT22;38420;53.150;6.370;2022-10-16T05:28:30;12.80;99.90
52509;DHT22;38420;53.150;6.370;2022-10-16T05:30:57;12.70;99.90
52509;DHT22;38420;53.150;6.370;2022-10-16T05:33:25;12.90;99.90
52509;DHT22;38420;53.150;6.370;2022-10-16T05:35:51;13.00;99.90
52509;DHT22;38420;53.150;6.370;2022-10-16T05:38:18;12.70;99.90
52509;DHT22;38420;53.150;6.370;2022-10-16T05:40:50;12.70;99.90
52509;DHT22;38420;53.150;6.370;2022-10-16T05:43:16;12.70;99.90
52509;DHT22;38420;53.150;6.370;2022-10-16T05:45:42;12.70;99.90
52509;DHT22;38420;53.150;6.370;2022-10-16T05:48:08;12.70;99.90
52509;DHT22;38420;53.150;6.370;2022-10-16T05:50:33;12.90;99.90
52509;DHT22;38420;53.150;6.370;2022-10-16T05:52:59;13.00;99.90
52509;DHT22;38420;53.150;6.370;2022-10-16T05:55:25;13.00;99.90
52509;DHT22;38420;53.150;6.370;2022-10-16T05:57:53;12.80;99.90
52509;DHT22;38420;53.150;6.370;2022-10-16T06:00:18;12.70;99.90
52509;DHT22;38420;53.150;6.370;2022-10-16T06:02:44;12.80;99.90
52509;DHT22;38420;53.150;6.370;2022-10-16T06:05:10;12.80;99.90
52509;DHT22;38420;53.150;6.370;2022-10-16T06:07:35;12.80;99.90
52509;DHT22;38420;53.150;6.370;2022-10-16T06:10:01;13.10;99.90
52509;DHT22;38420;53.150;6.370;2022-10-16T06:12:28;13.20;99.90
52509;DHT22;38420;53.150;6.370;2022-10-16T06:14:53;13.10;99.90
52509;DHT22;38420;53.150;6.370;2022-10-16T06:17:19;13.20;99.90
52509;DHT22;38420;53.150;6.370;2022-10-16T06:19:44;12.90;99.90
52509;DHT22;38420;53.150;6.370;2022-10-16T06:22:10;13.10;99.90
52509;DHT22;38420;53.150;6.370;2022-10-16T06:24:35;12.80;99.90
52509;DHT22;38420;53.150;6.370;2022-10-16T06:27:03;13.00;99.90
52509;DHT22;38420;53.150;6.370;2022-10-16T06:29:28;12.80;99.90
52509;DHT22;38420;53.150;6.370;2022-10-16T06:31:54;13.00;99.90
52509;DHT22;38420;53.150;6.370;2022-10-16T06:34:20;13.10;99.90
52509;DHT22;38420;53.150;6.370;2022-10-16T06:36:45;12.90;99.90
52509;DHT22;38420;53.150;6.370;2022-10-16T06:39:11;13.00;99.90
52509;DHT22;38420;53.150;6.370;2022-10-16T06:41:36;13.10;99.90
52509;DHT22;38420;53.150;6.370;2022-10-16T06:44:05;13.10;99.90
52509;DHT22;38420;53.150;6.370;2022-10-16T06:46:32;13.10;99.90
52509;DHT22;38420;53.150;6.370;2022-10-16T06:48:58;12.90;99.90
52509;DHT22;38420;53.150;6.370;2022-10-16T06:51:24;13.00;99.90
52509;DHT22;38420;53.150;6.370;2022-10-16T06:53:53;13.00;99.90
52509;DHT22;38420;53.150;6.370;2022-10-16T06:56:21;13.20;99.90
52509;DHT22;38420;53.150;6.370;2022-10-16T06:58:47;13.00;99.90
52509;DHT22;38420;53.150;6.370;2022-10-16T07:01:14;13.30;99.90
52509;DHT22;38420;53.150;6.370;2022-10-16T07:03:41;13.00;99.90
52509;DHT22;38420;53.150;6.370;2022-10-16T07:06:09;13.20;99.90
52509;DHT22;38420;53.150;6.370;2022-10-16T07:08:36;13.00;99.90
52509;DHT22;38420;53.150;6.370;2022-10-16T07:11:05;13.30;99.90
52509;DHT22;38420;53.150;6.370;2022-10-16T07:13:33;13.30;99.90
52509;DHT22;38420;53.150;6.370;2022-10-16T07:16:08;13.40;99.90
52509;DHT22;38420;53.150;6.370;2022-10-16T07:18:34;13.00;99.90
52509;DHT22;38420;53.150;6.370;2022-10-16T07:21:09;13.30;99.90
52509;DHT22;38420;53.150;6.370;2022-10-16T07:23:35;13.10;99.90
52509;DHT22;38420;53.150;6.370;2022-10-16T07:26:01;13.30;99.90
52509;DHT22;38420;53.150;6.370;2022-10-16T07:28:27;13.40;99.90
52509;DHT22;38420;53.150;6.370;2022-10-16T07:30:53;13.10;99.90
52509;DHT22;38420;53.150;6.370;2022-10-16T07:33:19;13.40;99.90
52509;DHT22;38420;53.150;6.370;2022-10-16T07:35:51;13.40;99.90
52509;DHT22;38420;53.150;6.370;2022-10-16T07:38:17;13.10;99.90
52509;DHT22;38420;53.150;6.370;2022-10-16T07:40:44;13.40;99.90
52509;DHT22;38420;53.150;6.370;2022-10-16T07:43:10;13.30;99.90
52509;DHT22;38420;53.150;6.370;2022-10-16T07:45:35;13.10;99.90
52509;DHT22;38420;53.150;6.370;2022-10-16T07:48:01;13.30;99.90
52509;DHT22;38420;53.150;6.370;2022-10-16T07:50:26;13.30;99.90
52509;DHT22;38420;53.150;6.370;2022-10-16T07:52:52;13.00;99.90
52509;DHT22;38420;53.150;6.370;2022-10-16T07:55:17;13.00;99.90
52509;DHT22;38420;53.150;6.370;2022-10-16T07:57:43;13.10;99.90
52509;DHT22;38420;53.150;6.370;2022-10-16T08:00:09;13.30;99.90
52509;DHT22;38420;53.150;6.370;2022-10-16T08:02:39;13.40;99.90
52509;DHT22;38420;53.150;6.370;2022-10-16T08:05:06;13.20;99.90
52509;DHT22;38420;53.150;6.370;2022-10-16T08:07:31;13.20;99.90
52509;DHT22;38420;53.150;6.370;2022-10-16T08:09:57;13.20;99.90
52509;DHT22;38420;53.150;6.370;2022-10-16T08:12:24;13.10;99.90
52509;DHT22;38420;53.150;6.370;2022-10-16T08:14:50;13.30;99.90
52509;DHT22;38420;53.150;6.370;2022-10-16T08:17:16;13.50;99.90
52509;DHT22;38420;53.150;6.370;2022-10-16T08:19:45;13.60;99.90
52509;DHT22;38420;53.150;6.370;2022-10-16T08:22:10;13.70;99.90
52509;DHT22;38420;53.150;6.370;2022-10-16T08:24:36;13.90;99.90
52509;DHT22;38420;53.150;6.370;2022-10-16T08:27:02;13.60;99.90
52509;DHT22;38420;53.150;6.370;2022-10-16T08:29:28;13.60;99.90
52509;DHT22;38420;53.150;6.370;2022-10-16T08:31:54;14.00;99.90
52509;DHT22;38420;53.150;6.370;2022-10-16T08:34:19;14.10;99.90
52509;DHT22;38420;53.150;6.370;2022-10-16T08:36:45;14.20;99.90
52509;DHT22;38420;53.150;6.370;2022-10-16T08:39:10;14.10;99.90
52509;DHT22;38420;53.150;6.370;2022-10-16T08:42:01;14.20;99.90
52509;DHT22;38420;53.150;6.370;2022-10-16T08:49:42;14.90;99.90
52509;DHT22;38420;53.150;6.370;2022-10-16T08:52:12;15.30;99.90
52509;DHT22;38420;53.150;6.370;2022-10-16T08:54:42;15.20;99.90
52509;DHT22;38420;53.150;6.370;2022-10-16T08:57:22;15.20;99.90
52509;DHT22;38420;53.150;6.370;2022-10-16T08:59:49;15.20;99.90
52509;DHT22;38420;53.150;6.370;2022-10-16T09:08:38;15.70;99.90
52509;DHT22;38420;53.150;6.370;2022-10-16T09:16:42;16.30;99.90
52509;DHT22;38420;53.150;6.370;2022-10-16T09:19:37;16.30;99.90
52509;DHT22;38420;53.150;6.370;2022-10-16T09:22:14;16.40;99.90
52509;DHT22;38420;53.150;6.370;2022-10-16T09:24:40;16.30;99.90
52509;DHT22;38420;53.150;6.370;2022-10-16T09:27:10;16.20;99.90
52509;DHT22;38420;53.150;6.370;2022-10-16T09:29:36;16.30;99.90
52509;DHT22;38420;53.150;6.370;2022-10-16T09:32:13;16.30;99.90
52509;DHT22;38420;53.150;6.370;2022-10-16T09:34:43;16.20;99.90
52509;DHT22;38420;53.150;6.370;2022-10-16T09:37:14;16.00;99.90
52509;DHT22;38420;53.150;6.370;2022-10-16T09:39:47;15.90;99.90
52509;DHT22;38420;53.150;6.370;2022-10-16T09:42:21;15.80;99.90
52509;DHT22;38420;53.150;6.370;2022-10-16T09:44:52;15.70;99.90
52509;DHT22;38420;53.150;6.370;2022-10-16T09:47:21;15.50;99.90
52509;DHT22;38420;53.150;6.370;2022-10-16T09:49:56;15.50;99.90
52509;DHT22;38420;53.150;6.370;2022-10-16T09:52:24;15.60;99.90
52509;DHT22;38420;53.150;6.370;2022-10-16T09:54:52;15.50;99.90
52509;DHT22;38420;53.150;6.370;2022-10-16T09:57:17;15.50;99.90
52509;DHT22;38420;53.150;6.370;2022-10-16T09:59:57;15.50;99.90
52509;DHT22;38420;53.150;6.370;2022-10-16T10:02:44;15.60;99.90
52509;DHT22;38420;53.150;6.370;2022-10-16T10:05:26;15.70;99.90
52509;DHT22;38420;53.150;6.370;2022-10-16T10:08:00;15.80;99.90
52509;DHT22;38420;53.150;6.370;2022-10-16T10:10:30;16.00;99.90
52509;DHT22;38420;53.150;6.370;2022-10-16T10:12:57;16.00;99.90
52509;DHT22;38420;53.150;6.370;2022-10-16T10:15:24;16.10;99.90
52509;DHT22;38420;53.150;6.370;2022-10-16T10:17:57;16.30;99.90
52509;DHT22;38420;53.150;6.370;2022-10-16T10:20:31;16.30;99.90
52509;DHT22;38420;53.150;6.370;2022-10-16T10:23:13;16.30;99.90
52509;DHT22;38420;53.150;6.370;2022-10-16T10:31:26;16.30;99.90
52509;DHT22;38420;53.150;6.370;2022-10-16T10:36:39;16.20;99.90
52509;DHT22;38420;53.150;6.370;2022-10-16T10:39:16;16.20;99.90
52509;DHT22;38420;53.150;6.370;2022-10-16T10:52:43;16.40;99.90
52509;DHT22;38420;53.150;6.370;2022-10-16T10:57:45;16.60;99.90
52509;DHT22;38420;53.150;6.370;2022-10-16T11:06:15;16.80;99.90
52509;DHT22;38420;53.150;6.370;2022-10-16T11:08:55;16.80;99.90
52509;DHT22;38420;53.150;6.370;2022-10-16T11:11:36;16.90;99.90
52509;DHT22;38420;53.150;6.370;2022-10-16T11:19:28;16.70;99.90
52509;DHT22;38420;53.150;6.370;2022-10-16T11:22:01;16.70;99.90
52509;DHT22;38420;53.150;6.370;2022-10-16T11:24:41;16.70;99.90
52509;DHT22;38420;53.150;6.370;2022-10-16T11:27:12;16.70;99.90
52509;DHT22;38420;53.150;6.370;2022-10-16T11:29:56;16.70;99.90
52509;DHT22;38420;53.150;6.370;2022-10-16T11:32:34;16.80;99.90
52509;DHT22;38420;53.150;6.370;2022-10-16T11:35:14;16.80;99.90
52509;DHT22;38420;53.150;6.370;2022-10-16T11:37:44;16.90;99.90
52509;DHT22;38420;53.150;6.370;2022-10-16T11:40:23;16.90;99.90
52509;DHT22;38420;53.150;6.370;2022-10-16T11:42:57;16.90;99.90
52509;DHT22;38420;53.150;6.370;2022-10-16T11:45:33;17.20;99.90
52509;DHT22;38420;53.150;6.370;2022-10-16T11:48:25;17.00;99.90
52509;DHT22;38420;53.150;6.370;2022-10-16T11:50:58;17.10;99.90
52509;DHT22;38420;53.150;6.370;2022-10-16T11:56:48;17.10;99.90
52509;DHT22;38420;53.150;6.370;2022-10-16T11:59:29;17.10;99.90
52509;DHT22;38420;53.150;6.370;2022-10-16T12:02:26;17.10;99.90
52509;DHT22;38420;53.150;6.370;2022-10-16T12:07:41;16.80;99.90
52509;DHT22;38420;53.150;6.370;2022-10-16T12:10:18;16.70;99.90
52509;DHT22;38420;53.150;6.370;2022-10-16T12:12:44;16.50;99.90
52509;DHT22;38420;53.150;6.370;2022-10-16T12:17:52;16.20;99.90
52509;DHT22;38420;53.150;6.370;2022-10-16T12:20:22;16.10;99.90
52509;DHT22;38420;53.150;6.370;2022-10-16T12:22:49;16.00;99.90
52509;DHT22;38420;53.150;6.370;2022-10-16T12:28:03;16.10;99.90
52509;DHT22;38420;53.150;6.370;2022-10-16T12:30:35;16.20;99.90
52509;DHT22;38420;53.150;6.370;2022-10-16T12:33:26;16.30;99.90
52509;DHT22;38420;53.150;6.370;2022-10-16T12:35:53;16.50;99.90
52509;DHT22;38420;53.150;6.370;2022-10-16T12:39:04;16.60;99.90
52509;DHT22;38420;53.150;6.370;2022-10-16T12:41:09;16.60;99.90
52509;DHT22;38420;53.150;6.370;2022-10-16T12:43:37;16.60;99.90
52509;DHT22;38420;53.150;6.370;2022-10-16T12:46:05;16.70;99.90
52509;DHT22;38420;53.150;6.370;2022-10-16T12:48:44;16.50;99.90
52509;DHT22;38420;53.150;6.370;2022-10-16T12:51:33;16.50;99.90
52509;DHT22;38420;53.150;6.370;2022-10-16T12:54:14;16.40;99.90
52509;DHT22;38420;53.150;6.370;2022-10-16T13:19:18;15.90;99.90
52509;DHT22;38420;53.150;6.370;2022-10-16T13:27:11;16.20;99.90
52509;DHT22;38420;53.150;6.370;2022-10-16T13:29:41;16.20;99.90
52509;DHT22;38420;53.150;6.370;2022-10-16T13:32:09;16.30;99.90
52509;DHT22;38420;53.150;6.370;2022-10-16T13:34:47;16.30;99.90
52509;DHT22;38420;53.150;6.370;2022-10-16T13:37:24;16.30;99.90
52509;DHT22;38420;53.150;6.370;2022-10-16T13:39:50;16.10;99.90
52509;DHT22;38420;53.150;6.370;2022-10-16T13:42:28;16.10;99.90
52509;DHT22;38420;53.150;6.370;2022-10-16T13:44:55;16.00;99.90
52509;DHT22;38420;53.150;6.370;2022-10-16T13:47:26;16.10;99.90
52509;DHT22;38420;53.150;6.370;2022-10-16T13:50:13;16.10;99.90
52509;DHT22;38420;53.150;6.370;2022-10-16T13:52:39;16.10;99.90
52509;DHT22;38420;53.150;6.370;2022-10-16T13:57:36;16.30;99.90
52509;DHT22;38420;53.150;6.370;2022-10-16T14:00:03;16.30;99.90
52509;DHT22;38420;53.150;6.370;2022-10-16T14:02:35;16.40;99.90
52509;DHT22;38420;53.150;6.370;2022-10-16T14:05:04;16.40;99.90
52509;DHT22;38420;53.150;6.370;2022-10-16T14:07:32;16.40;99.90
52509;DHT22;38420;53.150;6.370;2022-10-16T14:10:04;16.40;99.90
52509;DHT22;38420;53.150;6.370;2022-10-16T14:12:31;16.50;99.90
52509;DHT22;38420;53.150;6.370;2022-10-16T14:14:59;16.50;99.90
52509;DHT22;38420;53.150;6.370;2022-10-16T14:17:31;16.50;99.90
52509;DHT22;38420;53.150;6.370;2022-10-16T14:19:59;16.60;99.90
52509;DHT22;38420;53.150;6.370;2022-10-16T14:22:37;16.60;99.90
52509;DHT22;38420;53.150;6.370;2022-10-16T14:25:28;16.60;99.90
52509;DHT22;38420;53.150;6.370;2022-10-16T14:30:57;16.40;99.90
52509;DHT22;38420;53.150;6.370;2022-10-16T14:38:40;16.30;99.90
52509;DHT22;38420;53.150;6.370;2022-10-16T14:41:06;16.20;99.90
52509;DHT22;38420;53.150;6.370;2022-10-16T14:43:41;16.20;99.90
52509;DHT22;38420;53.150;6.370;2022-10-16T14:46:18;16.10;99.90
52509;DHT22;38420;53.150;6.370;2022-10-16T14:48:46;16.00;99.90
52509;DHT22;38420;53.150;6.370;2022-10-16T14:51:18;16.00;99.90
52509;DHT22;38420;53.150;6.370;2022-10-16T14:53:44;15.90;99.90
52509;DHT22;38420;53.150;6.370;2022-10-16T14:56:17;15.80;99.90
52509;DHT22;38420;53.150;6.370;2022-10-16T14:58:43;15.70;99.90
52509;DHT22;38420;53.150;6.370;2022-10-16T15:01:10;15.70;99.90
52509;DHT22;38420;53.150;6.370;2022-10-16T15:03:37;15.70;99.90
52509;DHT22;38420;53.150;6.370;2022-10-16T15:06:03;15.60;99.90
52509;DHT22;38420;53.150;6.370;2022-10-16T15:08:28;15.60;99.90
52509;DHT22;38420;53.150;6.370;2022-10-16T15:10:54;15.50;99.90
52509;DHT22;38420;53.150;6.370;2022-10-16T15:13:20;15.50;99.90
52509;DHT22;38420;53.150;6.370;2022-10-16T15:15:46;15.50;99.90
52509;DHT22;38420;53.150;6.370;2022-10-16T15:18:12;15.40;99.90
52509;DHT22;38420;53.150;6.370;2022-10-16T15:20:40;15.40;99.90
52509;DHT22;38420;53.150;6.370;2022-10-16T15:23:13;15.40;99.90
52509;DHT22;38420;53.150;6.370;2022-10-16T15:28:13;15.30;99.90
52509;DHT22;38420;53.150;6.370;2022-10-16T15:30:39;15.30;99.90
52509;DHT22;38420;53.150;6.370;2022-10-16T15:33:20;15.20;99.90
52509;DHT22;38420;53.150;6.370;2022-10-16T15:35:47;15.20;99.90
52509;DHT22;38420;53.150;6.370;2022-10-16T15:38:14;15.10;99.90
52509;DHT22;38420;53.150;6.370;2022-10-16T15:40:41;15.10;99.90
52509;DHT22;38420;53.150;6.370;2022-10-16T15:43:07;15.00;99.90
52509;DHT22;38420;53.150;6.370;2022-10-16T15:45:33;15.00;99.90
52509;DHT22;38420;53.150;6.370;2022-10-16T15:47:59;15.00;99.90
52509;DHT22;38420;53.150;6.370;2022-10-16T15:50:24;14.90;99.90
52509;DHT22;38420;53.150;6.370;2022-10-16T15:52:51;14.90;99.90
52509;DHT22;38420;53.150;6.370;2022-10-16T15:55:16;14.90;99.90
52509;DHT22;38420;53.150;6.370;2022-10-16T15:57:44;14.80;99.90
52509;DHT22;38420;53.150;6.370;2022-10-16T16:00:16;14.80;99.90
52509;DHT22;38420;53.150;6.370;2022-10-16T16:02:43;14.70;99.90
52509;DHT22;38420;53.150;6.370;2022-10-16T16:05:10;14.60;99.90
52509;DHT22;38420;53.150;6.370;2022-10-16T16:07:37;14.60;99.90
52509;DHT22;38420;53.150;6.370;2022-10-16T16:10:05;14.60;99.90
52509;DHT22;38420;53.150;6.370;2022-10-16T16:12:31;14.50;99.90
52509;DHT22;38420;53.150;6.370;2022-10-16T16:14:57;14.50;99.90
52509;DHT22;38420;53.150;6.370;2022-10-16T16:17:22;14.50;99.90
52509;DHT22;38420;53.150;6.370;2022-10-16T16:19:49;14.40;99.90
52509;DHT22;38420;53.150;6.370;2022-10-16T16:22:15;14.40;99.90
52509;DHT22;38420;53.150;6.370;2022-10-16T16:24:40;14.30;99.90
52509;DHT22;38420;53.150;6.370;2022-10-16T16:27:06;14.20;99.90
52509;DHT22;38420;53.150;6.370;2022-10-16T16:29:32;14.00;99.90
52509;DHT22;38420;53.150;6.370;2022-10-16T16:31:59;14.00;99.90
52509;DHT22;38420;53.150;6.370;2022-10-16T16:34:28;13.80;99.90
52509;DHT22;38420;53.150;6.370;2022-10-16T16:36:55;13.80;99.90
52509;DHT22;38420;53.150;6.370;2022-10-16T16:39:21;13.80;99.90
52509;DHT22;38420;53.150;6.370;2022-10-16T16:41:47;13.70;99.90
52509;DHT22;38420;53.150;6.370;2022-10-16T16:44:13;13.60;99.90
52509;DHT22;38420;53.150;6.370;2022-10-16T16:46:40;13.60;99.90
52509;DHT22;38420;53.150;6.370;2022-10-16T16:49:12;13.60;99.90
52509;DHT22;38420;53.150;6.370;2022-10-16T16:51:38;13.60;99.90
52509;DHT22;38420;53.150;6.370;2022-10-16T16:54:04;13.60;99.90
52509;DHT22;38420;53.150;6.370;2022-10-16T16:56:30;13.40;99.90
52509;DHT22;38420;53.150;6.370;2022-10-16T16:58:57;13.40;99.90
52509;DHT22;38420;53.150;6.370;2022-10-16T17:01:24;13.30;99.90
52509;DHT22;38420;53.150;6.370;2022-10-16T17:03:52;13.10;99.90
52509;DHT22;38420;53.150;6.370;2022-10-16T17:06:20;13.10;99.90
52509;DHT22;38420;53.150;6.370;2022-10-16T17:08:46;12.90;99.90
52509;DHT22;38420;53.150;6.370;2022-10-16T17:11:17;12.70;99.90
52509;DHT22;38420;53.150;6.370;2022-10-16T17:13:43;12.80;99.90
52509;DHT22;38420;53.150;6.370;2022-10-16T17:16:09;12.60;99.90
52509;DHT22;38420;53.150;6.370;2022-10-16T17:18:36;12.70;99.90
52509;DHT22;38420;53.150;6.370;2022-10-16T17:21:04;12.50;99.90
52509;DHT22;38420;53.150;6.370;2022-10-16T17:23:30;12.70;99.90
52509;DHT22;38420;53.150;6.370;2022-10-16T17:25:56;12.60;99.90
52509;DHT22;38420;53.150;6.370;2022-10-16T17:28:22;12.60;99.90
52509;DHT22;38420;53.150;6.370;2022-10-16T17:30:47;12.70;99.90
52509;DHT22;38420;53.150;6.370;2022-10-16T17:33:13;12.50;99.90
52509;DHT22;38420;53.150;6.370;2022-10-16T17:35:45;12.40;99.90